Time;durP1;ratioP1;P1;durP2;ratioP2;P2;SDS_P1;SDS_P2;PMS_P1;PMS_P2;Temp;Humidity;BMP_temperature;BMP_pressure;BME280_temperature;BME280_humidity;BME280_pressure;Samples;Min_cycle;Max_cycle;Signal;HPM_P1;HPM_P2
2022/09/17 00:00:19;;;;;;;14.50;9.83;;;;;;;8.96;100.00;98396.26;1704794;84;21602;-74
2022/09/17 00:02:54;;;;;;;13.32;9.25;;;;;;;9.00;100.00;98393.09;1701228;84;21120;-73
2022/09/17 00:05:19;;;;;;;16.70;10.13;;;;;;;9.05;100.00;98397.00;1670649;85;21223;-74
2022/09/17 00:07:46;;;;;;;13.68;9.80;;;;;;;9.10;100.00;98396.80;1659972;85;20950;-74
2022/09/17 00:10:12;;;;;;;13.88;9.78;;;;;;;9.14;100.00;98395.00;1656606;86;21620;-73
2022/09/17 00:12:40;;;;;;;13.72;9.58;;;;;;;9.18;100.00;98396.73;1658733;86;20990;-74
2022/09/17 00:15:08;;;;;;;12.25;10.05;;;;;;;9.23;100.00;98387.52;1653376;86;21024;-73
2022/09/17 00:17:36;;;;;;;13.80;9.95;;;;;;;9.27;100.00;98394.70;1666703;84;21725;-73
2022/09/17 00:20:04;;;;;;;14.20;9.63;;;;;;;9.31;100.00;98394.03;1669891;84;21686;-73
2022/09/17 00:22:31;;;;;;;14.13;8.50;;;;;;;9.34;100.00;98393.36;1659572;86;21544;-73
2022/09/17 00:24:57;;;;;;;12.45;9.48;;;;;;;9.37;100.00;98389.95;1699254;83;20916;-73
2022/09/17 00:27:23;;;;;;;14.53;9.08;;;;;;;9.40;100.00;98381.87;1689064;84;21547;-74
2022/09/17 00:29:50;;;;;;;13.53;9.98;;;;;;;9.41;100.00;98379.93;1693621;83;21077;-74
2022/09/17 00:32:17;;;;;;;11.73;9.83;;;;;;;9.42;100.00;98378.80;1691499;84;21000;-74
2022/09/17 00:34:45;;;;;;;15.00;9.43;;;;;;;9.46;100.00;98381.09;1689149;84;20945;-73
2022/09/17 00:37:12;;;;;;;11.53;8.73;;;;;;;9.50;100.00;98380.66;1695600;84;21011;-73
2022/09/17 00:39:38;;;;;;;11.53;9.50;;;;;;;9.56;100.00;98386.16;1671322;85;21498;-73
2022/09/17 00:42:09;;;;;;;24.10;9.83;;;;;;;9.62;100.00;98391.66;1659418;84;21771;-73
2022/09/17 00:44:48;;;;;;;14.43;8.75;;;;;;;9.66;100.00;98389.84;1688562;84;20862;-73
2022/09/17 00:47:38;;;;;;;12.35;8.63;;;;;;;9.70;100.00;98398.20;1691536;84;20948;-73
2022/09/17 00:50:15;;;;;;;11.75;8.73;;;;;;;9.70;100.00;98394.89;1693136;84;20921;-74
2022/09/17 00:52:51;;;;;;;13.25;8.40;;;;;;;9.72;100.00;98390.44;1686217;83;21044;-73
2022/09/17 00:55:57;;;;;;;13.30;8.80;;;;;;;9.74;100.00;98390.33;1694826;83;21839;-74
2022/09/17 00:58:23;;;;;;;9.98;8.45;;;;;;;9.75;100.00;98404.84;1659892;85;21094;-73
2022/09/17 01:00:50;;;;;;;12.35;8.48;;;;;;;9.74;100.00;98403.23;1659892;85;21137;-73
2022/09/17 01:03:16;;;;;;;11.55;8.48;;;;;;;9.73;100.00;98409.28;1672075;84;21535;-73
2022/09/17 01:06:12;;;;;;;12.23;8.75;;;;;;;9.73;100.00;98415.34;1693039;84;20957;-73
2022/09/17 01:08:51;;;;;;;11.88;8.35;;;;;;;9.72;100.00;98407.69;1693811;84;21274;-73
2022/09/17 01:11:46;;;;;;;14.38;8.70;;;;;;;9.73;100.00;98408.48;1696751;84;21023;-73
2022/09/17 01:14:38;;;;;;;10.00;8.20;;;;;;;9.75;100.00;98403.47;1692407;84;20965;-74
2022/09/17 01:17:46;;;;;;;10.58;8.28;;;;;;;9.79;100.00;98399.71;1695666;84;21539;-73
2022/09/17 01:20:51;;;;;;;10.60;9.50;;;;;;;9.83;100.00;98403.34;1673593;85;21133;-73
2022/09/17 01:24:11;;;;;;;17.73;8.80;;;;;;;9.88;100.00;98411.36;1668858;85;21257;-73
2022/09/17 01:27:00;;;;;;;16.55;8.85;;;;;;;9.93;100.00;98402.13;1632026;86;21072;-73
2022/09/17 01:29:47;;;;;;;13.50;8.98;;;;;;;10.01;100.00;98405.91;1646813;86;21077;-73
2022/09/17 01:32:37;;;;;;;15.43;9.90;;;;;;;10.03;100.00;98409.11;1683817;84;21000;-74
2022/09/17 01:35:45;;;;;;;12.53;9.80;;;;;;;10.06;100.00;98410.61;1663247;85;21001;-73
2022/09/17 01:38:29;;;;;;;13.22;9.30;;;;;;;10.10;100.00;98409.36;1648054;86;21318;-74
2022/09/17 01:41:25;;;;;;;10.98;8.65;;;;;;;10.11;100.00;98417.81;1639737;86;21433;-73
2022/09/17 01:44:13;;;;;;;11.90;8.93;;;;;;;10.10;100.00;98426.61;1654299;86;32984;-73
2022/09/17 01:46:47;;;;;;;12.53;8.98;;;;;;;10.11;100.00;98431.53;1652552;86;21323;-74
2022/09/17 01:49:14;;;;;;;13.25;9.28;;;;;;;10.13;100.00;98430.05;1652071;86;21108;-74
2022/09/17 01:51:45;;;;;;;14.18;9.25;;;;;;;10.17;100.00;98427.42;1660307;86;21108;-74
2022/09/17 01:54:27;;;;;;;15.13;8.95;;;;;;;10.21;100.00;98414.66;1691375;84;20873;-74
2022/09/17 01:57:04;;;;;;;14.87;8.98;;;;;;;10.24;100.00;98413.41;1689574;83;21001;-74
2022/09/17 01:59:35;;;;;;;11.18;9.13;;;;;;;10.25;100.00;98422.45;1655303;85;20982;-73
2022/09/17 02:02:15;;;;;;;11.53;9.05;;;;;;;10.27;100.00;98428.39;1660560;86;21055;-73
2022/09/17 02:05:07;;;;;;;13.07;9.20;;;;;;;10.28;100.00;98431.36;1650746;86;23622;-73
2022/09/17 02:07:45;;;;;;;16.40;9.53;;;;;;;10.31;100.00;98437.54;1655539;85;21205;-72
2022/09/17 02:10:28;;;;;;;14.70;9.25;;;;;;;10.31;100.00;98444.40;1643937;85;21002;-73
2022/09/17 02:13:02;;;;;;;14.43;9.28;;;;;;;10.33;100.00;98443.48;1652516;86;21044;-72
2022/09/17 02:15:33;;;;;;;14.80;8.83;;;;;;;10.34;100.00;98442.92;1648099;85;20978;-73
2022/09/17 02:18:12;;;;;;;13.35;8.95;;;;;;;10.35;100.00;98439.84;1612883;86;21457;-73
2022/09/17 02:20:44;;;;;;;17.55;8.73;;;;;;;10.35;100.00;98434.92;1652402;86;21066;-73
2022/09/17 02:23:15;;;;;;;10.10;7.83;;;;;;;10.35;100.00;98427.48;1642320;86;21470;-74
2022/09/17 02:25:49;;;;;;;10.23;7.85;;;;;;;10.37;100.00;98427.95;1656281;86;21089;-73
2022/09/17 02:28:36;;;;;;;11.80;8.85;;;;;;;10.38;100.00;98428.75;1630635;86;21041;-73
2022/09/17 02:31:03;;;;;;;13.32;8.38;;;;;;;10.38;100.00;98419.95;1644620;86;21192;-74
2022/09/17 02:33:30;;;;;;;11.48;9.05;;;;;;;10.41;100.00;98426.67;1642316;86;21501;-75
2022/09/17 02:35:56;;;;;;;12.43;9.13;;;;;;;10.43;100.00;98424.38;1650700;86;20965;-75
2022/09/17 02:38:27;;;;;;;12.85;8.73;;;;;;;10.45;100.00;98422.90;1646798;85;21038;-74
2022/09/17 02:41:08;;;;;;;11.10;8.83;;;;;;;10.47;100.00;98415.13;1651332;85;21446;-74
2022/09/17 02:44:07;;;;;;;16.40;8.98;;;;;;;10.46;100.00;98405.30;1641706;86;21183;-74
2022/09/17 02:47:00;;;;;;;12.30;9.23;;;;;;;10.47;100.00;98418.44;1647819;86;21517;-74
2022/09/17 02:49:44;;;;;;;13.93;8.70;;;;;;;10.47;100.00;98402.78;1705091;84;21042;-74
2022/09/17 02:52:35;;;;;;;12.65;8.30;;;;;;;10.50;100.00;98410.90;1688105;83;21469;-74
2022/09/17 02:55:25;;;;;;;12.43;9.03;;;;;;;10.51;100.00;98412.50;1694398;84;21056;-74
2022/09/17 02:58:06;;;;;;;13.48;9.20;;;;;;;10.49;100.00;98421.07;1670718;84;21124;-74
2022/09/17 03:00:34;;;;;;;10.75;8.70;;;;;;;10.48;100.00;98418.67;1672138;84;21017;-74
2022/09/17 03:03:23;;;;;;;15.95;8.70;;;;;;;10.50;100.00;98421.30;1647492;86;20981;-74
2022/09/17 03:05:50;;;;;;;14.50;8.90;;;;;;;10.52;100.00;98415.47;1650966;84;21042;-75
2022/09/17 03:08:20;;;;;;;15.72;9.70;;;;;;;10.52;100.00;98408.05;1697546;84;21035;-74
2022/09/17 03:10:48;;;;;;;14.15;9.20;;;;;;;10.57;100.00;98404.27;1694882;83;21122;-79
2022/09/17 03:13:15;;;;;;;15.48;9.78;;;;;;;10.58;100.00;98409.42;1690412;84;21059;-72
2022/09/17 03:15:42;;;;;;;12.80;8.00;;;;;;;10.58;100.00;98405.30;1696038;84;20968;-72
2022/09/17 03:18:08;;;;;;;14.53;8.45;;;;;;;10.58;100.00;98401.19;1671206;85;21120;-73
2022/09/17 03:20:35;;;;;;;11.43;8.35;;;;;;;10.64;100.00;98394.09;1663123;84;21032;-75
2022/09/17 03:23:03;;;;;;;14.00;8.75;;;;;;;10.66;100.00;98398.67;1671789;84;21862;-73
2022/09/17 03:25:30;;;;;;;12.55;8.50;;;;;;;10.65;100.00;98410.22;1649260;85;21522;-73
2022/09/17 03:27:57;;;;;;;10.30;8.90;;;;;;;10.66;100.00;98412.39;1650078;85;21071;-73
2022/09/17 03:30:23;;;;;;;10.35;8.70;;;;;;;10.67;100.00;98411.25;1650448;85;21084;-73
2022/09/17 03:32:50;;;;;;;13.90;8.48;;;;;;;10.69;100.00;98410.33;1657135;85;21488;-73
2022/09/17 03:35:16;;;;;;;12.90;8.40;;;;;;;10.68;100.00;98415.02;1686388;84;22192;-73
2022/09/17 03:37:42;;;;;;;11.93;8.53;;;;;;;10.67;100.00;98413.42;1667387;85;20954;-73
2022/09/17 03:40:09;;;;;;;13.35;9.20;;;;;;;10.70;100.00;98420.16;1673107;84;20997;-73
2022/09/17 03:42:37;;;;;;;12.07;8.23;;;;;;;10.71;100.00;98418.45;1665640;85;21460;-73
2022/09/17 03:45:05;;;;;;;12.70;8.85;;;;;;;10.74;100.00;98415.02;1686644;84;21527;-73
2022/09/17 03:47:32;;;;;;;11.97;8.33;;;;;;;10.74;100.00;98420.51;1686414;84;21320;-71
2022/09/17 03:49:58;;;;;;;10.58;8.38;;;;;;;10.74;100.00;98430.69;1693994;83;21607;-72
2022/09/17 03:52:25;;;;;;;12.45;8.93;;;;;;;10.72;100.00;98432.98;1693279;83;21064;-72
2022/09/17 03:54:51;;;;;;;13.58;9.28;;;;;;;10.69;100.00;98426.80;1695673;84;21099;-73
2022/09/17 03:57:18;;;;;;;10.38;9.28;;;;;;;10.68;100.00;98416.97;1697821;83;21511;-72
2022/09/17 03:59:44;;;;;;;12.58;9.43;;;;;;;10.67;100.00;98413.42;1661846;84;21143;-72
2022/09/17 04:02:11;;;;;;;13.25;11.00;;;;;;;10.69;100.00;98419.37;1689990;83;21000;-70
2022/09/17 04:04:40;;;;;;;16.93;9.95;;;;;;;10.71;100.00;98420.39;1687689;83;21108;-75
2022/09/17 04:07:06;;;;;;;15.03;11.25;;;;;;;10.75;100.00;98424.05;1692029;84;21022;-73
2022/09/17 04:09:35;;;;;;;12.82;9.28;;;;;;;10.76;100.00;98422.91;1692726;83;20917;-72
2022/09/17 04:12:03;;;;;;;12.85;9.68;;;;;;;10.76;100.00;98428.41;1693655;82;21556;-75
2022/09/17 04:14:29;;;;;;;14.00;10.30;;;;;;;10.76;100.00;98427.03;1689217;83;21115;-75
2022/09/17 04:16:57;;;;;;;12.68;9.58;;;;;;;10.75;100.00;98416.63;1694270;84;21100;-75
2022/09/17 04:19:24;;;;;;;13.18;10.65;;;;;;;10.77;100.00;98432.75;1688064;83;21091;-74
2022/09/17 04:21:51;;;;;;;16.42;10.50;;;;;;;10.77;100.00;98434.92;1694553;83;21540;-74
2022/09/17 04:24:18;;;;;;;12.65;10.70;;;;;;;10.77;100.00;98432.75;1687354;83;21136;-74
2022/09/17 04:26:45;;;;;;;14.53;11.18;;;;;;;10.78;100.00;98431.03;1694927;83;20909;-74
2022/09/17 04:29:11;;;;;;;15.35;11.10;;;;;;;10.81;100.00;98433.66;1691698;84;20953;-87
2022/09/17 04:31:38;;;;;;;18.77;11.10;;;;;;;10.83;100.00;98433.55;1693268;83;20996;-77
2022/09/17 04:34:05;;;;;;;17.50;12.00;;;;;;;10.85;100.00;98431.25;1692213;82;20965;-76
2022/09/17 04:36:31;;;;;;;15.10;11.53;;;;;;;10.86;100.00;98429.31;1692125;84;21144;-81
2022/09/17 04:38:58;;;;;;;14.78;10.85;;;;;;;10.88;100.00;98425.65;1695009;84;20989;-76
2022/09/17 04:41:24;;;;;;;13.68;11.22;;;;;;;10.88;100.00;98433.31;1692552;83;21001;-86
2022/09/17 04:43:51;;;;;;;16.15;10.10;;;;;;;10.89;100.00;98432.74;1686871;83;20957;-76
2022/09/17 04:46:18;;;;;;;14.00;10.70;;;;;;;10.90;100.00;98435.14;1692715;84;21550;-74
2022/09/17 04:48:44;;;;;;;14.50;11.10;;;;;;;10.91;100.00;98433.20;1694565;83;21207;-74
2022/09/17 04:51:11;;;;;;;15.03;10.60;;;;;;;10.94;100.00;98439.37;1694350;84;21045;-73
2022/09/17 04:53:37;;;;;;;15.13;10.58;;;;;;;10.97;100.00;98441.43;1694810;84;21025;-71
2022/09/17 04:56:05;;;;;;;14.55;10.75;;;;;;;11.01;100.00;98445.06;1688466;83;20993;-76
2022/09/17 04:58:31;;;;;;;12.47;9.45;;;;;;;11.06;100.00;98450.31;1696523;84;22324;-75
2022/09/17 05:00:59;;;;;;;12.13;9.63;;;;;;;11.10;100.00;98449.05;1672807;85;21154;-73
2022/09/17 05:03:25;;;;;;;13.05;9.50;;;;;;;11.15;100.00;98455.11;1651095;85;21027;-76
2022/09/17 05:05:52;;;;;;;16.57;10.88;;;;;;;11.20;100.00;98454.88;1684178;83;21509;-76
2022/09/17 05:08:21;;;;;;;18.23;10.43;;;;;;;11.25;100.00;98443.65;1686366;83;20931;-80
2022/09/17 05:10:50;;;;;;;14.55;10.60;;;;;;;11.32;100.00;98443.64;1687411;83;20969;-74
2022/09/17 05:13:18;;;;;;;16.80;10.90;;;;;;;11.37;100.00;98453.02;1688699;83;21822;-74
2022/09/17 05:15:45;;;;;;;16.10;11.45;;;;;;;11.39;100.00;98458.39;1694565;83;21005;-74
2022/09/17 05:18:13;;;;;;;14.13;12.30;;;;;;;11.42;100.00;98449.45;1692509;83;21573;-76
2022/09/17 05:20:39;;;;;;;17.80;14.83;;;;;;;11.48;100.00;98454.13;1694665;83;20893;-75
2022/09/17 05:23:06;;;;;;;16.70;14.78;;;;;;;11.51;100.00;98449.31;1688907;83;21065;-72
2022/09/17 05:25:33;;;;;;;20.27;16.90;;;;;;;11.53;100.00;98445.07;1692108;83;21107;-72
2022/09/17 05:28:00;;;;;;;25.17;21.55;;;;;;;11.57;100.00;98453.39;1698672;83;20925;-74
2022/09/17 05:30:27;;;;;;;24.37;21.50;;;;;;;11.61;100.00;98456.24;1686923;83;20945;-75
2022/09/17 05:33:03;;;;;;;23.15;17.75;;;;;;;11.65;100.00;98447.52;1690605;83;21089;-73
2022/09/17 05:35:30;;;;;;;20.37;15.28;;;;;;;11.68;100.00;98445.45;1694645;83;21055;-74
2022/09/17 05:38:01;;;;;;;15.85;13.85;;;;;;;11.71;100.00;98442.80;1673117;84;21151;-72
2022/09/17 05:40:29;;;;;;;19.25;16.02;;;;;;;11.76;100.00;98437.63;1690776;82;20949;-81
2022/09/17 05:43:00;;;;;;;20.45;16.32;;;;;;;11.80;100.00;98437.19;1667491;84;20945;-74
2022/09/17 05:45:28;;;;;;;21.13;16.37;;;;;;;11.85;100.00;98440.48;1642399;85;21018;-73
2022/09/17 05:47:58;;;;;;;19.32;14.00;;;;;;;11.90;100.00;98438.06;1659649;86;21040;-74
2022/09/17 05:50:25;;;;;;;14.65;11.55;;;;;;;11.94;100.00;98445.03;1637241;86;21190;-68
2022/09/17 05:52:52;;;;;;;16.12;10.50;;;;;;;11.99;100.00;98447.53;1649943;86;20925;-68
2022/09/17 05:55:18;;;;;;;16.37;8.95;;;;;;;12.05;100.00;98438.67;1659361;86;21496;-73
2022/09/17 05:57:45;;;;;;;11.05;8.38;;;;;;;12.13;100.00;98436.91;1663521;84;21009;-76
2022/09/17 06:00:13;;;;;;;13.10;9.15;;;;;;;12.21;100.00;98430.42;1706657;82;21010;-72
2022/09/17 06:02:41;;;;;;;15.10;8.78;;;;;;;12.30;100.00;98425.55;1679584;84;20847;-73
2022/09/17 06:05:08;;;;;;;12.50;8.35;;;;;;;12.40;100.00;98425.59;1689658;83;20935;-72
2022/09/17 06:07:38;;;;;;;16.87;8.18;;;;;;;12.48;100.00;98439.19;1683815;84;21011;-70
2022/09/17 06:10:10;;;;;;;9.10;7.65;;;;;;;12.57;100.00;98445.89;1699388;82;21499;-71
2022/09/17 06:12:41;;;;;;;13.65;7.45;;;;;;;12.68;100.00;98446.16;1688416;84;21441;-70
2022/09/17 06:15:13;;;;;;;11.22;7.78;;;;;;;12.74;100.00;98440.58;1688013;84;21226;-69
2022/09/17 06:17:42;;;;;;;14.98;8.40;;;;;;;12.83;100.00;98440.61;1686714;84;21083;-69
2022/09/17 06:20:12;;;;;;;12.68;7.40;;;;;;;12.96;100.00;98444.06;1691529;83;21297;-71
2022/09/17 06:22:42;;;;;;;9.63;7.90;;;;;;;13.08;100.00;98443.16;1689045;84;21020;-70
2022/09/17 06:25:18;;;;;;;10.97;8.57;;;;;;;13.14;100.00;98443.90;1671023;84;21020;-69
2022/09/17 06:27:55;;;;;;;12.53;8.05;;;;;;;13.25;100.00;98443.38;1654922;84;21083;-70
2022/09/17 06:30:21;;;;;;;13.03;7.85;;;;;;;13.32;100.00;98444.30;1694607;82;21088;-70
2022/09/17 06:32:48;;;;;;;9.75;7.25;;;;;;;13.39;100.00;98443.66;1693526;84;21583;-71
2022/09/17 06:35:15;;;;;;;8.23;6.67;;;;;;;13.44;100.00;98444.75;1689475;83;21472;-70
2022/09/17 06:37:47;;;;;;;9.78;5.97;;;;;;;13.48;100.00;98440.91;1695631;84;21552;-70
2022/09/17 06:40:14;;;;;;;8.73;5.58;;;;;;;13.52;100.00;98442.37;1688375;84;21484;-70
2022/09/17 06:42:41;;;;;;;8.70;5.97;;;;;;;13.55;100.00;98440.27;1695124;84;21155;-70
2022/09/17 06:45:12;;;;;;;13.48;6.05;;;;;;;13.59;100.00;98442.52;1677223;83;21018;-70
2022/09/17 06:47:49;;;;;;;9.90;6.20;;;;;;;13.60;100.00;98442.73;1693818;84;21031;-72
2022/09/17 06:50:17;;;;;;;10.00;7.08;;;;;;;13.62;100.00;98452.83;1696716;84;21087;-70
2022/09/17 06:52:54;;;;;;;12.15;7.15;;;;;;;13.64;100.00;98456.02;1686806;83;21211;-70
2022/09/17 06:55:27;;;;;;;14.60;9.13;;;;;;;13.65;100.00;98450.72;1645486;85;21121;-69
2022/09/17 06:57:58;;;;;;;19.15;9.03;;;;;;;13.65;100.00;98446.58;1673041;85;21501;-70
2022/09/17 07:00:30;;;;;;;13.40;7.70;;;;;;;13.66;100.00;98441.87;1665301;85;26504;-70
2022/09/17 07:03:02;;;;;;;11.12;6.85;;;;;;;13.66;100.00;98447.38;1611281;86;21464;-70
2022/09/17 07:05:36;;;;;;;10.38;5.65;;;;;;;13.66;100.00;98448.18;1698647;83;21840;-70
2022/09/17 07:08:05;;;;;;;10.10;5.67;;;;;;;13.68;100.00;98453.34;1687140;84;21554;-70
2022/09/17 07:10:35;;;;;;;11.68;6.83;;;;;;;13.67;100.00;98453.92;1665788;83;21554;-70
2022/09/17 07:13:03;;;;;;;11.70;6.87;;;;;;;13.70;100.00;98464.22;1720288;82;21527;-70
2022/09/17 07:15:32;;;;;;;12.45;7.47;;;;;;;13.74;100.00;98462.34;1727629;82;21084;-70
2022/09/17 07:18:13;;;;;;;15.98;7.67;;;;;;;13.77;100.00;98461.61;1724803;82;21553;-70
2022/09/17 07:20:42;;;;;;;13.90;7.17;;;;;;;13.79;100.00;98452.97;1730246;82;21098;-70
2022/09/17 07:23:11;;;;;;;11.12;6.70;;;;;;;13.82;100.00;98452.25;1726867;82;21011;-70
2022/09/17 07:25:43;;;;;;;11.80;6.17;;;;;;;13.85;100.00;98453.70;1720300;82;21002;-70
2022/09/17 07:28:13;;;;;;;7.90;5.42;;;;;;;13.91;100.00;98447.86;1726045;82;20946;-70
2022/09/17 07:30:45;;;;;;;9.53;6.25;;;;;;;13.95;100.00;98454.25;1728192;82;21579;-70
2022/09/17 07:33:22;;;;;;;11.70;6.40;;;;;;;14.01;100.00;98458.31;1714646;81;21012;-70
2022/09/17 07:35:59;;;;;;;10.48;7.40;;;;;;;14.05;100.00;98460.56;1674956;84;20983;-70
2022/09/17 07:38:28;;;;;;;10.20;6.92;;;;;;;14.07;100.00;98457.66;1726464;82;21031;-71
2022/09/17 07:41:18;;;;;;;11.68;6.53;;;;;;;14.11;100.00;98453.00;1706444;82;20971;-69
2022/09/17 07:43:48;;;;;;;9.65;6.12;;;;;;;14.15;100.00;98450.30;1656508;84;20976;-70
2022/09/17 07:46:18;;;;;;;9.30;5.78;;;;;;;14.19;100.00;98457.48;1687683;83;20950;-70
2022/09/17 07:48:47;;;;;;;10.45;6.33;;;;;;;14.22;100.00;98454.58;1693203;83;20971;-70
2022/09/17 07:51:22;;;;;;;9.68;6.60;;;;;;;14.21;100.00;98451.02;1659800;84;21004;-69
2022/09/17 07:53:55;;;;;;;14.03;7.10;;;;;;;14.24;100.00;98436.27;1687268;84;21013;-70
2022/09/17 07:56:25;;;;;;;11.08;5.97;;;;;;;14.27;100.00;98441.86;1695436;84;22013;-70
2022/09/17 07:58:56;;;;;;;14.38;6.05;;;;;;;14.28;100.00;98446.22;1671541;84;21450;-69
2022/09/17 08:01:23;;;;;;;14.17;6.57;;;;;;;14.27;100.00;98444.63;1649824;85;21068;-69
2022/09/17 08:03:57;;;;;;;9.10;6.22;;;;;;;14.27;100.00;98446.58;1658194;85;21069;-69
2022/09/17 08:06:27;;;;;;;9.68;5.87;;;;;;;14.25;100.00;98438.67;1659298;85;21656;-69
2022/09/17 08:08:57;;;;;;;10.10;5.87;;;;;;;14.25;100.00;98442.81;1658684;85;21850;-69
2022/09/17 08:11:26;;;;;;;8.25;5.72;;;;;;;14.25;100.00;98441.42;1693920;84;21062;-69
2022/09/17 08:13:58;;;;;;;6.78;5.62;;;;;;;14.25;100.00;98446.95;1690056;84;21666;-69
2022/09/17 08:16:29;;;;;;;11.00;6.12;;;;;;;14.26;100.00;98440.27;1691463;84;20968;-69
2022/09/17 08:18:58;;;;;;;9.23;6.70;;;;;;;14.26;100.00;98445.78;1668853;85;21002;-69
2022/09/17 08:21:28;;;;;;;12.82;9.25;;;;;;;14.24;100.00;98448.70;1659616;86;21250;-70
2022/09/17 08:23:56;;;;;;;13.83;11.90;;;;;;;14.25;100.00;98454.43;1649424;86;21037;-70
2022/09/17 08:26:27;;;;;;;12.10;10.58;;;;;;;14.25;100.00;98453.84;1653529;86;20965;-69
2022/09/17 08:28:57;;;;;;;15.35;10.53;;;;;;;14.22;100.00;98444.92;1640774;86;20966;-69
2022/09/17 08:31:25;;;;;;;12.98;9.13;;;;;;;14.21;100.00;98454.36;1643934;86;21029;-69
2022/09/17 08:34:00;;;;;;;15.98;10.75;;;;;;;14.19;100.00;98431.27;1643584;86;21178;-69
2022/09/17 08:36:28;;;;;;;10.20;8.13;;;;;;;14.20;100.00;98425.97;1651496;86;21533;-69
2022/09/17 08:38:59;;;;;;;11.33;8.57;;;;;;;14.23;100.00;98428.58;1642900;86;21526;-69
2022/09/17 08:42:09;;;;;;;12.63;8.35;;;;;;;14.25;100.00;98431.77;1640257;86;21046;-69
2022/09/17 08:44:41;;;;;;;13.55;8.40;;;;;;;14.30;100.00;98434.81;1654619;86;21046;-69
2022/09/17 08:47:19;;;;;;;11.18;7.22;;;;;;;14.34;100.00;98442.58;1656153;86;21453;-69
2022/09/17 08:49:52;;;;;;;12.00;6.37;;;;;;;14.34;100.00;98436.47;1636455;86;20930;-69
2022/09/17 08:52:48;;;;;;;10.55;6.45;;;;;;;14.36;100.00;98439.66;1679167;84;21471;-69
2022/09/17 08:55:54;;;;;;;6.37;4.92;;;;;;;14.36;100.00;98436.10;1658373;85;21200;-69
2022/09/17 08:58:53;;;;;;;11.22;6.80;;;;;;;14.31;100.00;98435.82;1617568;87;21525;-69
2022/09/17 09:01:46;;;;;;;7.05;5.28;;;;;;;14.27;100.00;98446.00;1609507;87;21191;-69
2022/09/17 09:04:32;;;;;;;6.92;5.60;;;;;;;14.28;100.00;98446.80;1637043;86;21538;-69
2022/09/17 09:07:13;;;;;;;10.08;7.30;;;;;;;14.26;100.00;98447.16;1697090;83;21071;-69
2022/09/17 09:09:52;;;;;;;8.03;5.08;;;;;;;14.22;100.00;98444.92;1666999;84;20967;-69
2022/09/17 09:12:27;;;;;;;5.90;4.65;;;;;;;14.21;100.00;98440.56;1671971;84;20859;-70
2022/09/17 09:15:07;;;;;;;7.58;5.37;;;;;;;14.19;100.00;98443.69;1671013;84;21183;-69
2022/09/17 09:17:46;;;;;;;5.75;5.12;;;;;;;14.17;100.00;98443.26;1662742;85;21088;-71
2022/09/17 09:20:39;;;;;;;9.53;5.47;;;;;;;14.18;100.00;98442.67;1660768;85;20966;-71
2022/09/17 09:23:20;;;;;;;7.33;5.25;;;;;;;14.23;100.00;98457.56;1642979;86;21096;-73
2022/09/17 09:25:58;;;;;;;14.27;5.70;;;;;;;14.29;100.00;98458.86;1655594;85;21144;-68
2022/09/17 09:28:47;;;;;;;5.92;4.65;;;;;;;14.33;100.00;98456.16;1639136;86;21874;-67
2022/09/17 09:31:23;;;;;;;9.95;5.28;;;;;;;14.39;100.00;98451.34;1643392;86;21073;-70
2022/09/17 09:33:49;;;;;;;6.60;4.55;;;;;;;14.48;100.00;98447.77;1664660;84;20970;-73
2022/09/17 09:36:20;;;;;;;7.97;4.95;;;;;;;14.57;100.00;98448.91;1671141;83;20917;-71
2022/09/17 09:39:01;;;;;;;12.15;4.55;;;;;;;14.68;100.00;98453.23;1679200;83;20889;-71
2022/09/17 09:41:45;;;;;;;5.78;4.35;;;;;;;14.82;100.00;98457.61;1685062;84;21959;-73
2022/09/17 09:44:14;;;;;;;10.20;4.78;;;;;;;15.00;100.00;98446.26;1679163;84;20901;-72
2022/09/17 09:46:56;;;;;;;5.72;4.70;;;;;;;15.22;100.00;98434.11;1677500;85;21567;-74
2022/09/17 09:49:55;;;;;;;6.12;3.87;;;;;;;15.39;100.00;98437.71;1681267;83;20980;-72
2022/09/17 09:52:47;;;;;;;6.67;4.40;;;;;;;15.54;99.40;98442.27;1676622;84;21625;-71
2022/09/17 09:56:02;;;;;;;8.10;3.95;;;;;;;15.66;97.28;98444.80;1681770;83;21248;-67
2022/09/17 09:58:37;;;;;;;5.47;3.98;;;;;;;15.71;95.83;98441.70;1674989;85;21019;-68
2022/09/17 10:01:14;;;;;;;6.08;4.30;;;;;;;15.76;94.20;98434.45;1679739;85;21531;-70
2022/09/17 10:03:44;;;;;;;6.55;3.87;;;;;;;15.88;94.63;98422.92;1676904;83;21038;-72
2022/09/17 10:06:12;;;;;;;6.45;4.03;;;;;;;15.99;93.14;98423.84;1678935;85;20897;-70
2022/09/17 10:08:41;;;;;;;9.28;4.75;;;;;;;16.08;92.75;98430.67;1679452;85;21524;-71
2022/09/17 10:11:19;;;;;;;5.65;4.30;;;;;;;16.14;91.89;98426.98;1680135;85;21003;-72
2022/09/17 10:13:45;;;;;;;12.55;4.60;;;;;;;16.13;90.85;98432.30;1678785;85;20944;-71
2022/09/17 10:16:23;;;;;;;10.43;4.80;;;;;;;16.05;91.22;98434.20;1680818;85;20930;-71
2022/09/17 10:19:23;;;;;;;7.05;4.40;;;;;;;16.02;91.79;98430.01;1680630;83;20944;-69
2022/09/17 10:21:48;;;;;;;7.25;4.70;;;;;;;16.01;92.59;98433.36;1674268;85;21198;-71
2022/09/17 10:24:26;;;;;;;7.62;4.50;;;;;;;15.97;91.58;98431.14;1679400;85;21424;-71
2022/09/17 10:27:07;;;;;;;8.75;3.83;;;;;;;15.93;92.37;98427.53;1681431;85;21063;-71
2022/09/17 10:29:34;;;;;;;7.75;4.45;;;;;;;15.88;92.24;98425.10;1678183;85;20988;-70
2022/09/17 10:32:05;;;;;;;5.80;4.30;;;;;;;15.84;92.28;98425.06;1681391;85;21059;-68
2022/09/17 10:34:30;;;;;;;13.30;5.72;;;;;;;15.81;91.80;98431.94;1678851;85;21159;-72
2022/09/17 10:36:57;;;;;;;11.90;4.40;;;;;;;15.79;92.11;98426.78;1681538;83;20929;-72
2022/09/17 10:39:37;;;;;;;8.75;4.20;;;;;;;15.78;93.00;98419.66;1679424;83;21554;-75
2022/09/17 10:42:13;;;;;;;6.78;4.17;;;;;;;15.78;92.46;98420.24;1681541;83;21020;-75
2022/09/17 10:44:54;;;;;;;5.80;4.45;;;;;;;15.73;91.76;98428.88;1680050;84;21129;-74
2022/09/17 10:47:33;;;;;;;8.10;4.62;;;;;;;15.68;92.62;98424.47;1681885;83;21911;-78
2022/09/17 10:50:16;;;;;;;7.50;3.52;;;;;;;15.66;92.74;98429.58;1674684;84;21523;-76
2022/09/17 10:52:51;;;;;;;7.65;4.20;;;;;;;15.64;92.92;98427.78;1680406;84;21230;-73
2022/09/17 10:55:52;;;;;;;8.38;4.75;;;;;;;15.66;92.78;98421.28;1681078;83;20996;-71
2022/09/17 10:58:48;;;;;;;6.60;4.05;;;;;;;15.71;93.87;98426.48;1679389;84;20985;-72
2022/09/17 11:01:35;;;;;;;6.00;4.75;;;;;;;15.73;92.84;98424.14;1679329;84;21160;-75
2022/09/17 11:04:45;;;;;;;9.20;4.45;;;;;;;15.70;93.02;98413.02;1721278;82;20923;-75
2022/09/17 11:07:40;;;;;;;11.00;4.60;;;;;;;15.61;93.89;98405.60;1644083;86;21024;-81
2022/09/17 11:10:13;;;;;;;8.50;5.33;;;;;;;15.54;95.38;98404.92;1598908;88;21708;-74
2022/09/17 11:13:10;;;;;;;7.92;5.03;;;;;;;15.50;96.81;98402.11;1646948;85;21038;-74
2022/09/17 11:16:11;;;;;;;9.33;4.92;;;;;;;15.47;97.22;98403.45;1727558;81;21275;-72
2022/09/17 11:18:43;;;;;;;7.85;5.15;;;;;;;15.44;97.89;98402.81;1672228;83;21005;-75
2022/09/17 11:21:19;;;;;;;6.67;4.78;;;;;;;15.46;98.13;98393.56;1691457;83;20956;-76
2022/09/17 11:24:12;;;;;;;8.05;4.50;;;;;;;15.42;97.15;98387.98;1729813;82;20979;-73
2022/09/17 11:26:54;;;;;;;6.50;4.58;;;;;;;15.38;96.89;98389.11;1726518;81;21552;-76
2022/09/17 11:29:49;;;;;;;7.70;4.70;;;;;;;15.34;96.95;98397.36;1725349;81;20921;-76
2022/09/17 11:32:24;;;;;;;7.85;4.53;;;;;;;15.31;96.82;98398.69;1728428;82;21102;-75
2022/09/17 11:35:01;;;;;;;8.73;4.30;;;;;;;15.31;96.57;98392.58;1730152;82;20863;-79
2022/09/17 11:37:37;;;;;;;8.30;4.65;;;;;;;15.31;95.92;98397.31;1726762;81;21015;-79
2022/09/17 11:40:14;;;;;;;8.38;4.92;;;;;;;15.26;96.90;98387.38;1725990;81;20871;-77
2022/09/17 11:42:55;;;;;;;10.72;4.70;;;;;;;15.22;96.91;98381.00;1728947;81;21773;-78
2022/09/17 11:45:32;;;;;;;7.40;4.25;;;;;;;15.17;97.38;98373.83;1726220;81;21440;-86
2022/09/17 11:48:16;;;;;;;10.30;4.67;;;;;;;15.11;98.03;98366.23;1711701;82;21044;-78
2022/09/17 11:51:00;;;;;;;11.68;5.33;;;;;;;15.05;98.64;98365.77;1728564;81;20947;-75
2022/09/17 11:53:36;;;;;;;12.55;6.08;;;;;;;15.02;99.08;98356.84;1726651;82;20991;-76